createdAt,value
2022-10-19T00:01:38.140Z,99172.78
2022-10-19T00:04:41.285Z,99173.88
2022-10-19T00:07:46.000Z,99168.22
2022-10-19T00:10:49.733Z,99180.06
2022-10-19T00:13:53.552Z,99183.06
2022-10-19T00:16:58.098Z,99166.63
2022-10-19T00:20:01.424Z,99179.63
2022-10-19T00:23:06.026Z,99177.72
2022-10-19T00:26:09.861Z,99188.84
2022-10-19T00:29:14.435Z,99181.25
2022-10-19T00:32:17.677Z,99179.88
2022-10-19T00:35:20.874Z,99183.66
2022-10-19T00:38:25.383Z,99187.50
2022-10-19T00:41:31.541Z,99168.44
2022-10-19T00:45:01.566Z,99189.16
2022-10-19T00:48:05.027Z,99185.19
2022-10-19T00:51:08.448Z,99183.38
2022-10-19T00:54:13.279Z,99134.69
2022-10-19T00:57:17.121Z,99143.63
2022-10-19T01:00:20.517Z,99126.50
2022-10-19T01:03:23.715Z,99174.28
2022-10-19T01:06:28.261Z,99172.16
2022-10-19T01:09:32.801Z,99181.13
2022-10-19T01:12:54.033Z,99176.28
2022-10-19T01:16:04.447Z,99165.97
2022-10-19T01:19:24.636Z,99169.94
2022-10-19T01:22:42.983Z,99143.69
2022-10-19T01:25:56.717Z,99146.72
2022-10-19T01:29:10.648Z,99159.47
2022-10-19T01:32:21.594Z,99173.00
2022-10-19T01:35:30.192Z,99163.25
2022-10-19T01:38:38.913Z,99169.47
2022-10-19T01:41:50.437Z,99145.38
2022-10-19T01:44:56.607Z,99161.44
2022-10-19T01:48:05.948Z,99166.09
2022-10-19T01:51:14.190Z,99161.88
2022-10-19T01:54:18.954Z,99170.16
2022-10-19T01:57:26.718Z,99171.00
2022-10-19T02:00:30.481Z,99164.13
2022-10-19T02:03:36.777Z,99165.44
2022-10-19T02:06:41.657Z,99158.53
2022-10-19T02:09:44.793Z,99161.78
2022-10-19T02:12:49.099Z,99159.88
2022-10-19T02:15:55.788Z,99145.03
2022-10-19T02:19:01.919Z,99146.53
2022-10-19T02:22:05.511Z,99139.94
2022-10-19T02:25:10.047Z,99143.41
2022-10-19T02:28:13.494Z,99128.41
2022-10-19T02:31:17.074Z,99127.50
2022-10-19T02:34:21.639Z,99123.09
2022-10-19T02:37:25.822Z,99123.34
2022-10-19T02:40:33.564Z,99104.13
2022-10-19T02:43:40.151Z,99096.19
2022-10-19T02:46:46.569Z,99125.00
2022-10-19T02:49:51.730Z,99128.41
2022-10-19T02:52:55.065Z,99126.38
2022-10-19T02:55:58.226Z,99123.41
2022-10-19T02:59:01.634Z,99124.44
2022-10-19T03:02:04.714Z,99119.06
2022-10-19T03:05:11.037Z,99117.00
2022-10-19T03:08:14.132Z,99115.16
2022-10-19T03:11:17.229Z,99120.47
2022-10-19T03:14:20.343Z,99121.72
2022-10-19T03:17:23.478Z,99118.22
2022-10-19T03:20:28.284Z,99116.06
2022-10-19T03:23:31.545Z,99110.97
2022-10-19T03:26:34.770Z,99117.16
2022-10-19T03:29:37.989Z,99114.84
2022-10-19T03:34:27.170Z,99112.88
2022-10-19T03:37:30.264Z,99105.75
2022-10-19T03:40:33.511Z,99113.25
2022-10-19T03:43:36.718Z,99111.59
2022-10-19T03:46:40.589Z,99095.66
2022-10-19T03:49:45.546Z,99106.72
2022-10-19T03:52:49.571Z,99111.75
2022-10-19T03:55:52.794Z,99095.91
2022-10-19T03:58:57.570Z,99084.84
2022-10-19T04:02:00.764Z,99103.97
2022-10-19T04:05:06.016Z,99105.66
2022-10-19T04:08:09.155Z,99107.34
2022-10-19T04:11:14.905Z,99102.97
2022-10-19T04:14:31.726Z,99108.44
2022-10-19T04:17:36.864Z,99104.09
2022-10-19T04:20:42.790Z,99091.06
2022-10-19T04:23:45.966Z,99082.19
2022-10-19T04:26:50.806Z,99102.66
2022-10-19T04:29:54.125Z,99106.50
2022-10-19T04:32:57.580Z,99098.97
2022-10-19T04:36:03.177Z,99101.06
2022-10-19T04:39:06.978Z,99102.22
2022-10-19T04:42:10.110Z,99095.47
2022-10-19T04:45:13.228Z,99099.56
2022-10-19T04:48:16.439Z,99100.13
2022-10-19T04:51:21.245Z,99094.69
2022-10-19T04:54:24.424Z,99101.09
2022-10-19T04:57:28.078Z,99103.28
2022-10-19T05:00:31.358Z,99096.69
2022-10-19T05:03:34.477Z,99078.16
2022-10-19T05:06:39.560Z,99094.69
2022-10-19T05:09:43.096Z,99090.03
2022-10-19T05:12:46.421Z,99077.22
2022-10-19T05:15:57.014Z,99075.81
2022-10-19T05:19:00.189Z,99069.69
2022-10-19T05:22:04.711Z,99066.09
2022-10-19T05:25:09.268Z,99073.56
2022-10-19T05:28:12.642Z,99075.28
2022-10-19T05:31:18.220Z,99073.41
2022-10-19T05:34:21.652Z,99082.50
2022-10-19T05:37:26.691Z,99086.38
2022-10-19T05:40:30.881Z,99084.91
2022-10-19T05:43:34.051Z,99092.25
2022-10-19T05:46:37.982Z,99089.16
2022-10-19T05:49:41.091Z,99095.44
2022-10-19T05:52:45.569Z,99090.13
2022-10-19T05:55:48.689Z,99102.00
2022-10-19T05:58:52.396Z,99105.94
2022-10-19T06:01:55.676Z,99102.66
2022-10-19T06:04:58.947Z,99103.56
2022-10-19T06:08:03.529Z,99106.34
2022-10-19T06:11:07.975Z,99107.19
2022-10-19T06:14:14.764Z,99114.31
2022-10-19T06:17:17.960Z,99066.16
2022-10-19T06:20:21.032Z,99112.69
2022-10-19T06:23:25.540Z,99118.38
2022-10-19T06:26:29.596Z,99121.56
2022-10-19T06:29:32.825Z,99129.13
2022-10-19T06:32:35.966Z,99127.47
2022-10-19T06:35:42.244Z,99133.63
2022-10-19T06:38:46.988Z,99124.09
2022-10-19T06:41:50.102Z,99129.28
2022-10-19T06:44:56.366Z,99132.94
2022-10-19T06:48:03.580Z,99135.59
2022-10-19T06:51:10.322Z,99128.31
2022-10-19T06:54:14.845Z,99134.34
2022-10-19T06:57:18.078Z,99135.53
2022-10-19T07:00:21.359Z,99133.28
2022-10-19T07:03:25.037Z,99129.84
2022-10-19T07:06:29.787Z,99120.44
2022-10-19T07:09:34.635Z,99137.41
2022-10-19T07:12:37.979Z,99138.91
2022-10-19T07:15:41.381Z,99149.91
2022-10-19T07:18:44.777Z,99149.19
2022-10-19T07:21:51.446Z,99105.88
2022-10-19T07:24:55.945Z,99142.78
2022-10-19T07:27:59.388Z,99150.69
2022-10-19T07:31:07.225Z,99155.41
2022-10-19T07:34:13.716Z,99150.66
2022-10-19T07:37:16.822Z,99159.31
2022-10-19T07:40:21.387Z,99157.75
2022-10-19T07:43:24.461Z,99164.28
2022-10-19T07:46:29.600Z,99164.84
2022-10-19T07:49:32.866Z,99163.88
2022-10-19T07:52:37.058Z,99166.38
2022-10-19T07:55:42.223Z,99167.22
2022-10-19T07:58:46.137Z,99152.41
2022-10-19T08:01:50.235Z,99161.34
2022-10-19T08:05:01.255Z,99171.66
2022-10-19T08:08:06.426Z,99145.50
2022-10-19T08:11:13.082Z,99174.00
2022-10-19T08:14:16.494Z,99171.28
2022-10-19T08:17:19.992Z,99176.63
2022-10-19T08:20:23.450Z,99161.31
2022-10-19T08:23:27.467Z,99173.66
2022-10-19T08:26:33.800Z,99179.47
2022-10-19T08:29:37.300Z,99173.13
2022-10-19T08:32:40.602Z,99184.38
2022-10-19T08:35:43.802Z,99182.63
2022-10-19T08:38:48.685Z,99176.69
2022-10-19T08:42:03.081Z,99168.25
2022-10-19T08:45:28.316Z,99163.56
2022-10-19T08:48:36.638Z,99166.09
2022-10-19T08:51:41.828Z,99167.94
2022-10-19T08:54:52.735Z,99169.41
2022-10-19T08:58:05.565Z,99170.28
2022-10-19T09:01:17.573Z,99173.72
2022-10-19T09:04:25.544Z,99179.34
2022-10-19T09:07:32.805Z,99184.66
2022-10-19T09:10:38.572Z,99187.84
2022-10-19T09:14:04.131Z,99189.66
2022-10-19T09:17:14.761Z,99202.00
2022-10-19T09:20:21.196Z,99152.78
2022-10-19T09:23:30.506Z,99204.66
2022-10-19T09:26:37.120Z,99200.97
2022-10-19T09:29:45.452Z,99195.25
2022-10-19T09:34:31.282Z,99191.44
2022-10-19T09:37:41.370Z,99205.84
2022-10-19T09:40:45.406Z,99183.63
2022-10-19T09:43:54.455Z,99211.88
2022-10-19T09:47:14.002Z,99211.97
2022-10-19T09:50:21.343Z,99209.69
2022-10-19T09:53:26.569Z,99204.63
2022-10-19T09:56:29.925Z,99174.56
2022-10-19T09:59:37.425Z,99172.19
2022-10-19T10:02:40.630Z,99182.41
2022-10-19T10:05:48.733Z,99195.16
2022-10-19T10:08:58.250Z,99194.31
2022-10-19T10:12:01.568Z,99181.75
2022-10-19T10:15:07.170Z,99198.72
2022-10-19T10:18:15.197Z,99180.88
2022-10-19T10:21:25.597Z,99181.72
2022-10-19T10:24:31.244Z,99177.25
2022-10-19T10:27:36.903Z,99172.19
2022-10-19T10:30:40.308Z,99166.16
2022-10-19T10:33:45.441Z,99162.41
2022-10-19T10:36:54.690Z,99152.56
2022-10-19T10:40:02.135Z,99157.44
2022-10-19T10:43:10.090Z,99150.31
2022-10-19T10:46:17.678Z,99147.75
2022-10-19T10:49:24.152Z,99141.78
2022-10-19T10:52:31.208Z,99102.34
2022-10-19T10:55:35.709Z,99120.38
2022-10-19T10:58:47.690Z,99112.66
2022-10-19T11:01:59.988Z,99114.19
2022-10-19T11:05:08.378Z,99085.81
2022-10-19T11:08:21.893Z,99099.97
2022-10-19T11:11:28.933Z,99091.25
2022-10-19T11:14:38.304Z,99103.72
2022-10-19T11:17:53.913Z,99029.94
2022-10-19T11:21:06.041Z,99093.19
2022-10-19T11:24:19.455Z,99075.97
2022-10-19T11:27:35.868Z,99027.13
2022-10-19T11:30:50.794Z,99095.84
2022-10-19T11:34:02.685Z,99099.13
2022-10-19T11:37:20.338Z,99092.56
2022-10-19T11:40:32.182Z,99087.94
2022-10-19T11:43:43.395Z,99075.75
2022-10-19T11:46:55.272Z,99063.19
2022-10-19T11:53:28.364Z,99060.91
2022-10-19T11:57:01.712Z,99054.97
2022-10-19T12:00:14.571Z,98987.69
2022-10-19T12:03:43.672Z,99047.28
2022-10-19T12:06:55.986Z,99035.72
2022-10-19T12:10:07.267Z,99025.56
2022-10-19T12:13:17.315Z,99030.66
2022-10-19T12:16:30.535Z,99032.94
2022-10-19T12:19:37.988Z,99028.31
2022-10-19T12:22:41.228Z,98999.84
2022-10-19T12:25:46.319Z,99008.59
2022-10-19T12:28:58.689Z,99001.84
2022-10-19T12:32:04.236Z,99006.03
2022-10-19T12:35:24.936Z,98983.44
2022-10-19T12:38:37.834Z,98999.06
2022-10-19T12:41:52.195Z,98990.31
2022-10-19T12:45:18.488Z,98957.97
2022-10-19T12:48:24.550Z,98956.88
2022-10-19T12:51:28.213Z,98981.13
2022-10-19T12:54:35.393Z,98966.44
2022-10-19T12:57:40.724Z,98958.59
2022-10-19T13:00:59.082Z,98942.38
2022-10-19T13:04:11.728Z,98955.13
2022-10-19T13:07:19.283Z,98964.84
2022-10-19T13:10:25.821Z,98954.25
2022-10-19T13:13:52.984Z,98950.59
2022-10-19T13:17:01.937Z,98947.88
2022-10-19T13:20:48.072Z,98947.75
2022-10-19T13:23:51.465Z,98944.50
2022-10-19T13:27:25.101Z,98914.38
2022-10-19T13:31:03.430Z,98946.63
2022-10-19T13:34:16.709Z,98932.41
2022-10-19T13:37:20.320Z,98917.91
2022-10-19T13:40:24.929Z,98923.66
2022-10-19T13:43:31.949Z,98924.44
2022-10-19T13:46:49.185Z,98925.72
2022-10-19T13:50:08.608Z,98914.31
2022-10-19T13:53:29.804Z,98907.28
2022-10-19T13:56:45.857Z,98893.81
2022-10-19T14:00:13.550Z,98907.06
2022-10-19T14:03:29.247Z,98811.34
2022-10-19T14:06:40.197Z,98899.84
2022-10-19T14:10:03.094Z,98897.19
2022-10-19T14:13:12.676Z,98890.81
2022-10-19T14:16:22.034Z,98899.94
2022-10-19T14:19:29.126Z,98885.22
2022-10-19T14:22:36.037Z,98886.34
2022-10-19T14:25:39.324Z,98820.47
2022-10-19T14:28:43.649Z,98849.06
2022-10-19T14:31:50.906Z,98875.19
2022-10-19T14:34:55.696Z,98878.09
2022-10-19T14:38:01.152Z,98834.78
2022-10-19T14:41:06.152Z,98868.00
2022-10-19T14:44:31.438Z,98857.56
2022-10-19T14:47:34.564Z,98863.84
2022-10-19T14:50:46.056Z,98860.25
2022-10-19T14:53:54.969Z,98832.84
2022-10-19T14:57:05.034Z,98860.06
2022-10-19T15:00:15.897Z,98856.28
2022-10-19T15:03:24.006Z,98863.50
2022-10-19T15:06:29.403Z,98856.91
2022-10-19T15:09:47.916Z,98843.13
2022-10-19T15:12:52.676Z,98865.13
2022-10-19T15:15:56.963Z,98872.69
2022-10-19T15:19:04.740Z,98860.53
2022-10-19T15:22:13.966Z,98841.78
2022-10-19T15:25:33.315Z,98840.56
2022-10-19T15:28:41.421Z,98839.41
2022-10-19T15:34:31.054Z,98833.91
2022-10-19T15:37:34.436Z,98827.63
2022-10-19T15:40:42.360Z,98816.44
2022-10-19T15:43:48.258Z,98827.16
2022-10-19T15:47:19.363Z,98815.13
2022-10-19T15:50:37.530Z,98806.09
2022-10-19T15:53:40.689Z,98839.09
2022-10-19T15:56:45.740Z,98845.16
2022-10-19T15:59:49.128Z,98841.91
2022-10-19T16:02:52.522Z,98837.91
2022-10-19T16:05:57.084Z,98839.78
2022-10-19T16:09:00.871Z,98819.78
2022-10-19T16:12:04.466Z,98806.75
2022-10-19T16:15:08.540Z,98822.72
2022-10-19T16:18:12.244Z,98845.75
2022-10-19T16:21:17.873Z,98843.69
2022-10-19T16:24:20.989Z,98827.28
2022-10-19T16:27:24.352Z,98847.28
2022-10-19T16:30:27.435Z,98851.38
2022-10-19T16:33:30.727Z,98851.75
2022-10-19T16:36:35.330Z,98851.41
2022-10-19T16:39:38.734Z,98861.47
2022-10-19T16:42:41.929Z,98864.91
2022-10-19T16:45:45.544Z,98851.88
2022-10-19T16:48:48.689Z,98874.22
2022-10-19T16:51:56.447Z,98838.41
2022-10-19T16:55:00.926Z,98862.84
2022-10-19T16:58:04.497Z,98863.16
2022-10-19T17:01:08.185Z,98863.47
2022-10-19T17:04:11.752Z,98852.34
2022-10-19T17:07:17.106Z,98864.19
2022-10-19T17:10:20.953Z,98847.53
2022-10-19T17:13:24.555Z,98833.84
2022-10-19T17:16:29.846Z,98835.91
2022-10-19T17:19:33.170Z,98860.50
2022-10-19T17:22:38.086Z,98858.31
2022-10-19T17:25:47.962Z,98865.25
2022-10-19T17:28:51.164Z,98853.41
2022-10-19T17:31:54.330Z,98843.03
2022-10-19T17:34:57.691Z,98852.06
2022-10-19T17:38:02.330Z,98855.81
2022-10-19T17:41:08.008Z,98840.38
2022-10-19T17:44:11.380Z,98862.28
2022-10-19T17:47:14.515Z,98863.03
2022-10-19T17:50:17.861Z,98862.56
2022-10-19T17:53:22.689Z,98857.91
2022-10-19T17:56:27.089Z,98844.84
2022-10-19T17:59:40.640Z,98846.53
2022-10-19T18:02:53.738Z,98854.97
2022-10-19T18:05:58.618Z,98851.34
2022-10-19T18:09:05.838Z,98841.81
2022-10-19T18:12:13.237Z,98837.81
2022-10-19T18:15:16.574Z,98861.78
2022-10-19T18:18:23.068Z,98815.22
2022-10-19T18:21:28.112Z,98841.63
2022-10-19T18:24:34.672Z,98830.78
2022-10-19T18:27:38.096Z,98832.44
2022-10-19T18:30:45.182Z,98796.41
2022-10-19T18:33:50.100Z,98822.63
2022-10-19T18:36:53.691Z,98836.53
2022-10-19T18:39:58.222Z,98848.19
2022-10-19T18:43:01.437Z,98859.84
2022-10-19T18:46:04.634Z,98852.72
2022-10-19T18:49:09.559Z,98833.50
2022-10-19T18:52:13.499Z,98858.75
2022-10-19T18:55:18.193Z,98862.50
2022-10-19T18:58:21.299Z,98862.03
2022-10-19T19:01:26.654Z,98854.50
2022-10-19T19:04:30.135Z,98850.75
2022-10-19T19:07:33.288Z,98847.19
2022-10-19T19:10:37.770Z,98831.63
2022-10-19T19:13:41.916Z,98814.22
2022-10-19T19:16:45.902Z,98832.00
2022-10-19T19:19:49.027Z,98833.91
2022-10-19T19:22:52.301Z,98806.94
2022-10-19T19:25:58.218Z,98835.06
2022-10-19T19:29:01.371Z,98838.44
2022-10-19T19:32:05.145Z,98832.53
2022-10-19T19:35:08.613Z,98824.91
2022-10-19T19:38:12.369Z,98829.19
2022-10-19T19:41:17.556Z,98830.44
2022-10-19T19:44:22.966Z,98823.22
2022-10-19T19:47:26.241Z,98830.31
2022-10-19T19:50:29.831Z,98834.63
2022-10-19T19:53:32.947Z,98835.81
2022-10-19T19:56:39.184Z,98836.63
2022-10-19T19:59:42.383Z,98828.47
2022-10-19T20:02:45.518Z,98730.38
2022-10-19T20:05:48.623Z,98823.72
2022-10-19T20:08:51.864Z,98826.94
2022-10-19T20:11:56.561Z,98831.38
2022-10-19T20:14:59.681Z,98831.66
2022-10-19T20:18:02.856Z,98833.97
2022-10-19T20:21:07.059Z,98836.31
2022-10-19T20:24:10.918Z,98836.41
2022-10-19T20:27:15.434Z,98823.50
2022-10-19T20:30:18.598Z,98787.94
2022-10-19T20:33:21.883Z,98825.84
2022-10-19T20:36:26.678Z,98808.22
2022-10-19T20:39:30.175Z,98818.97
2022-10-19T20:42:35.107Z,98807.13
2022-10-19T20:45:38.362Z,98807.97
2022-10-19T20:48:41.755Z,98786.84
2022-10-19T20:51:45.044Z,98806.59
2022-10-19T20:54:49.326Z,98795.25
2022-10-19T20:57:54.030Z,98789.75
2022-10-19T21:00:57.091Z,98794.66
2022-10-19T21:04:03.209Z,98793.59
2022-10-19T21:07:06.375Z,98798.06
2022-10-19T21:10:10.135Z,98766.72
2022-10-19T21:13:14.807Z,98794.84
2022-10-19T21:16:20.414Z,98793.16
2022-10-19T21:19:25.902Z,98796.19
2022-10-19T21:22:29.171Z,98802.31
2022-10-19T21:25:32.413Z,98792.91
2022-10-19T21:28:38.110Z,98791.75
2022-10-19T21:34:29.159Z,98780.06
2022-10-19T21:37:32.680Z,98782.03
2022-10-19T21:40:36.692Z,98783.19
2022-10-19T21:43:40.073Z,98794.44
2022-10-19T21:46:44.012Z,98788.63
2022-10-19T21:49:48.509Z,98791.31
2022-10-19T21:52:51.840Z,98798.41
2022-10-19T21:55:55.054Z,98797.72
2022-10-19T21:58:58.481Z,98800.47
2022-10-19T22:02:01.650Z,98806.75
2022-10-19T22:05:07.042Z,98804.06
2022-10-19T22:08:10.417Z,98806.91
2022-10-19T22:11:15.151Z,98798.53
2022-10-19T22:14:18.699Z,98797.78
2022-10-19T22:17:21.918Z,98799.19
2022-10-19T22:20:26.396Z,98783.53
2022-10-19T22:23:29.802Z,98779.50
2022-10-19T22:26:35.434Z,98774.91
2022-10-19T22:29:38.940Z,98768.59
2022-10-19T22:32:42.069Z,98758.25
2022-10-19T22:35:54.232Z,98759.78
2022-10-19T22:38:57.362Z,98750.72
2022-10-19T22:42:00.443Z,98750.81
2022-10-19T22:45:03.576Z,98751.59
2022-10-19T22:48:07.622Z,98761.91
2022-10-19T22:51:12.084Z,98758.31
2022-10-19T22:54:15.718Z,98756.94
2022-10-19T22:57:18.858Z,98759.44
2022-10-19T23:00:22.044Z,98760.34
2022-10-19T23:03:25.141Z,98762.28
2022-10-19T23:06:29.977Z,98763.28
2022-10-19T23:09:33.086Z,98759.97
2022-10-19T23:12:36.314Z,98763.56
2022-10-19T23:15:43.120Z,98770.31
2022-10-19T23:18:47.294Z,98751.91
2022-10-19T23:21:51.730Z,98758.75
2022-10-19T23:24:54.898Z,98735.19
2022-10-19T23:27:58.058Z,98737.78
2022-10-19T23:31:06.477Z,98747.19
2022-10-19T23:34:09.670Z,98756.81
2022-10-19T23:37:14.183Z,98758.44
2022-10-19T23:40:17.476Z,98761.03
2022-10-19T23:43:20.624Z,98753.31
2022-10-19T23:46:23.813Z,98731.25
2022-10-19T23:49:26.910Z,98752.34
2022-10-19T23:52:31.364Z,98748.53
2022-10-19T23:55:34.435Z,98752.13
2022-10-19T23:58:37.652Z,98732.56
